Flight Track Log - Related Links

Times and Time Zones

All times are in EDT time to prevent confusion due to time zone crossing. See the SWA3670 flight status page for this flight to view local times or setup timezone preferences in your user account.

Time Position Orientation Groundspeed Altitude Reporting Facility
EDT Latitude Longitude Course Direction KTS MPH feet Rate Location/Type
Fri 01:10:56 PM 39.1667 -76.7667 270° West 218 251 3,400  Level Potomac TRACON
Fri 01:12:43 PM 39.0669 -76.6850 148° Southeast 240 276 7,700 2,643 Climbing Washington Center
Fri 01:13:44 PM 39.0739 -76.5836 85° East 222 255 10,800 2,975 Climbing Washington Center
Fri 01:14:42 PM 39.1000 -76.4636 74° East 280 322 13,600 2,824 Climbing Washington Center
Fri 01:15:43 PM 39.1278 -76.3328 75° East 323 372 16,400 2,975 Climbing Washington Center
Fri 01:16:41 PM 39.1536 -76.2019 76° East 360 414 19,500 2,370 Climbing Washington Center
Fri 01:17:42 PM 39.1792 -76.0522 78° East 396 456 21,100 1,884 Climbing Washington Center
Fri 01:18:42 PM 39.2483 -75.9211 56° Northeast 421 484 23,300 1,636 Climbing Washington Center
Fri 01:19:43 PM 39.3300 -75.7928 51° Northeast 431 496 24,400 1,328 Climbing Washington Center
Fri 01:20:44 PM 39.4114 -75.6667 50° Northeast 455 524 26,000 908 Climbing Washington Center
Fri 01:21:42 PM 39.4928 -75.5350 51° Northeast 466 536 26,200 1,017 Climbing Washington Center
Fri 01:22:42 PM 39.5781 -75.4003 51° Northeast 466 536 28,000 1,950 Climbing Washington Center
Fri 01:23:42 PM 39.6631 -75.2681 50° Northeast 466 536 30,100 1,983 Climbing Washington Center
Fri 01:24:43 PM 39.7625 -75.1219 48° Northeast 483 556 32,000 1,693 Climbing Washington Center
Fri 01:26:25 PM 39.9117 -74.9114 47° Northeast 494 568 34,700 1,519 Climbing New York Center
Fri 01:27:25 PM 40.0203 -74.7825 42° Northeast 488 562 36,100 1,140 Climbing New York Center
Fri 01:28:26 PM 40.1450 -74.7325 17° North 460 529 37,000 450 Climbing New York Center
Fri 01:29:25 PM 40.2589 -74.6903 16° North 460 529 37,000  Level New York Center
Fri 01:30:23 PM 40.3833 -74.6483 14° North 460 529 37,000  Level New York Center
Fri 01:31:26 PM 40.5036 -74.6058 15° North 454 522 37,000  Level New York Center
Fri 01:32:26 PM 40.6256 -74.5661 14° North 449 517 37,000  Level New York Center
Fri 01:33:26 PM 40.7478 -74.5211 16° North 449 517 37,000  Level New York Center
Fri 01:34:25 PM 40.8678 -74.4811 14° North 449 517 37,000  Level New York Center
Fri 01:36:01 PM 41.0556 -74.4144 15° North 448 516 37,000  Level Boston Center
Fri 01:37:02 PM 41.1886 -74.3672 15° North 448 516 37,000  Level Boston Center
Fri 01:38:04 PM 41.3083 -74.3253 15° North 443 510 37,000  Level Boston Center
Fri 01:39:06 PM 41.4267 -74.2836 15° North 443 510 37,000  Level Boston Center
Fri 01:40:07 PM 41.5439 -74.2406 15° North 439 505 37,000  Level Boston Center
Fri 01:41:09 PM 41.6636 -74.1983 15° North 439 505 37,000 -387 Level Boston Center
Fri 01:42:11 PM 41.7956 -74.1508 15° North 440 506 36,200 -1,902 Descending Boston Center
Fri 01:43:12 PM 41.9147 -74.1086 15° North 440 506 33,100 -1,561 Descending Boston Center
Fri 01:44:14 PM 42.0350 -74.0644 15° North 445 512 33,000 -194 Descending Boston Center
Fri 01:45:16 PM 42.1525 -74.0186 16° North 442 509 32,700 -683 Descending Boston Center
Fri 01:46:17 PM 42.2283 -73.8853 52° Northeast 456 525 31,600 -1,073 Descending Boston Center
Fri 01:47:19 PM 42.2958 -73.6989 64° Northeast 460 529 30,500 -1,016 Descending Boston Center
Fri 01:48:21 PM 42.3508 -73.5469 64° Northeast 456 525 29,500 -976 Descending Boston Center
Fri 01:49:22 PM 42.4050 -73.3978 64° Northeast 447 514 28,500 -1,366 Descending Boston Center
Fri 01:50:24 PM 42.4578 -73.2497 64° Northeast 440 506 26,700 -1,839 Descending Boston Center
Fri 01:51:26 PM 42.5097 -73.1039 64° Northeast 430 495 24,700 -1,935 Descending Boston Center
Fri 01:52:28 PM 42.5628 -72.9561 64° Northeast 409 471 22,700 -1,902 Descending Boston Center
Fri 01:53:29 PM 42.6025 -72.8197 68° East 394 453 20,800 -1,805 Descending Boston Center
Fri 01:54:31 PM 42.6356 -72.6844 72° East 385 443 19,000 -1,742 Descending Boston Center
Fri 01:55:33 PM 42.6681 -72.5539 71° East 371 427 17,200 -1,756 Descending Boston Center
Fri 01:56:34 PM 42.6994 -72.4267 71° East 363 418 15,400 -1,854 Descending Boston Center
Fri 01:57:36 PM 42.7361 -72.2800 71° East 347 399 13,400 -1,742 Descending Boston Center
Fri 01:58:38 PM 42.7653 -72.1606 72° East 331 381 11,800 -1,597 Descending Boston Center
Fri 01:59:40 PM 42.7928 -72.0478 72° East 320 368 10,100 -1,610 Descending Boston Center
Fri 02:00:41 PM 42.8050 -71.9297 82° East 300 345 8,500 -1,610 Descending Boston Center
Fri 02:01:43 PM 42.7961 -71.8206 96° East 295 339 6,800 -1,839 Descending Boston Center
Fri 02:02:45 PM 42.7858 -71.7069 97° East 286 329 4,700 -1,306 Descending Boston Center
Fri 02:03:47 PM 42.7750 -71.6025 98° East 284 327 4,100 -339 Descending Boston Center
Fri 02:04:49 PM 42.7697 -71.4939 94° East 272 313 4,000 -293 Descending Boston Center
Fri 02:05:50 PM 42.7900 -71.4172 70° East 215 247 3,500 -927 Descending Boston Center
Fri 02:06:52 PM 42.8336 -71.3806 32° Northeast 191 220 2,100 -1,065 Descending Boston Center
Fri 02:07:54 PM 42.8733 -71.3986 342° North 141 162 1,300 -677 Descending Boston Center
Fri 02:08:56 PM 42.9064 -71.4178 337° Northwest 132 152 700 -435 Descending Boston Center
Fri 02:09:58 PM 42.9367 -71.4350 337° Northwest 132 152 400 -290 Descending Boston Center
Fri 02:11:00 PM 42.9328 -71.4358 316° Northwest  Level Estimated

Login

Don't have an account? Register now (free) for customized features, flight alerts, and more!